Station BISM2 - 8571421 - Bishops Head, MD Image indicating link to RSS feed of recent meteorological observations for station BISM2


Conditions at BISM2 as of
(10:30 am EDT)
1430 GMT on 09/01/2026:
     

Click on the graph icon in the table below to see a time series plot of the last five days of that observation.

5-day plot - Wind Direction Wind Direction (WDIR): W ( 260 deg true )
5-day plot - Wind Speed Wind Speed (WSPD): 4.1 kts
5-day plot - Wind Gust Wind Gust (GST): 5.1 kts
5-day plot - Atmospheric Pressure Atmospheric Pressure (PRES):30.05 in
5-day plot - Air Temperature Air Temperature (ATMP): 81.7 °F
5-day plot - Water Temperature Water Temperature (WTMP): 83.3 °F
5-day plot - Wind Speed at 10 Meters Wind Speed at 10 meters (WSPD10M): 5.8 kts
5-day plot - Wind Speed at 20 Meters Wind Speed at 20 meters (WSPD20M): 5.8 kts
5-day plot -  Wind Speed, Wind Gust and Atmospheric Pressure Combined plot of Wind Speed, Gust, and Air Pressure
NOS Water Level Observation Network Water Level
Previous observations
TIME
(EDT)
5-day plot - Wind Direction
WDIR
 
5-day plot - Wind Speed
WSPD
kts
5-day plot - Wind Gust
GST
kts
5-day plot - Wave Height
WVHT
ft
5-day plot - Dominant Wave Period
DPD
sec
5-day plot - Average Wave Period
APD
sec
5-day plot - Mean Wave Direction
MWD
 
5-day plot - Atmospheric Pressure
PRES
in
5-day plot - Pressure Tendency
PTDY
in
5-day plot - Air Temperature
ATMP
°F
5-day plot - Water Temperature
WTMP
°F
5-day plot - Dew Point
DEWP
°F
5-day plot - Salinity
SAL
psu
5-day plot - Visibility
VIS
nmi
5-day plot - Tide (above MLLW)
TIDE
ft
2026-09-01 10:24 am W 5.1 6.0----30.05- 81.5 83.3----
2026-09-01 10:18 am W 5.1 8.0----30.05-- 83.3----
2026-09-01 10:12 am W 6.0 7.0----30.05-- 83.1----
2026-09-01 10:06 am W 6.0 7.0----30.05-- 83.1----
2026-09-01 10:00 am W 6.0 7.0----30.05+0.02 81.5 82.9----
2026-09-01 09:54 am W 6.0 7.0----30.05- 81.3 82.9----
2026-09-01 09:48 am W 6.0 7.0----30.05- 81.3 82.8----
2026-09-01 09:42 am W 6.0 7.0----30.05- 81.1 82.8----
2026-09-01 09:36 am W 5.1 6.0----30.05- 81.0 82.8----
2026-09-01 09:30 am W 5.1 6.0----30.05- 81.1 82.6----
2026-09-01 09:24 am W 5.1 8.0----30.05- 81.0 82.6----
2026-09-01 09:18 am W 7.0 8.0----30.05-- 82.6----
2026-09-01 09:12 am W 7.0 8.9----30.05-- 82.6----
2026-09-01 09:06 am W 8.0 8.0----30.05-- 82.4----
2026-09-01 09:00 am W 8.0 9.9----30.06+0.02 80.8 82.2----
2026-09-01 08:54 am W 8.0 8.0----30.06- 80.6 82.2----
2026-09-01 08:48 am W 7.0 8.0----30.06-- 82.0----
2026-09-01 08:42 am W 6.0 7.0----30.05-- 82.0----
2026-09-01 08:36 amWNW 5.1 6.0----30.05-- 82.0----
2026-09-01 08:30 amWNW 6.0 7.0----30.05- 80.4 82.0----
2026-09-01 08:24 amWNW 7.0 8.0----30.06- 80.4 82.0----
2026-09-01 08:18 amWNW 6.0 8.0----30.06-- 82.0----
2026-09-01 08:12 amWNW 6.0 7.0----30.06-- 82.0----
2026-09-01 08:06 amWNW 6.0 7.0----30.06-- 82.0----
2026-09-01 08:00 am W 6.0 8.0----30.06+0.02 80.2 82.0----
2026-09-01 07:54 am W 7.0 8.9----30.06- 80.2 82.0----
2026-09-01 07:48 amWNW 8.0 9.9----30.06- 80.2 82.0----
2026-09-01 07:42 amWNW 8.9 9.9----30.05- 80.1 82.0----
2026-09-01 07:36 amWNW 8.9 9.9----30.05- 80.1 82.0----
2026-09-01 07:30 am W 8.0 9.9----30.04- 80.2 82.0----
2026-09-01 07:24 am W 8.0 8.9----30.04- 80.2 82.0----
2026-09-01 07:18 am W 8.0 8.9----30.04-- 82.0----
2026-09-01 07:12 amWSW 8.0 8.9----30.03-- 82.2----
2026-09-01 07:06 am W 8.0 9.9----30.03-- 82.2----
2026-09-01 07:00 amWSW 8.9 9.9----30.03+0.00 79.9 82.2----
2026-09-01 06:54 am W 8.9 9.9----30.04- 79.9 82.2----
2026-09-01 06:48 am W 8.9 11.1----30.04- 79.9 82.2----
2026-09-01 06:42 am W 8.9 11.1----30.04- 80.1 82.2----
2026-09-01 06:36 am W 8.9 11.1----30.04- 80.1 82.2----
2026-09-01 06:30 am W 8.9 9.9----30.04- 79.9 82.2----
2026-09-01 06:24 am W 8.9 9.9----30.04- 80.1 82.2----
2026-09-01 06:18 amWSW 8.9 11.1----30.04-- 82.2----
2026-09-01 06:12 am W 9.9 11.1----30.04-- 82.2----
2026-09-01 06:06 am W 9.9 11.1----30.04-- 82.2----
2026-09-01 06:00 am W 8.9 9.9----30.04- 80.4 82.4----
2026-09-01 05:54 am W 8.0 9.9----30.04- 80.2 82.4----
2026-09-01 05:48 am W 8.9 9.9----30.04- 80.4 82.4----
2026-09-01 05:42 am W 8.0 9.9----30.03- 80.4 82.4----
2026-09-01 05:36 am W 8.9 11.1----30.03- 80.4 82.6----
2026-09-01 05:30 am W 8.9 9.9----30.03- 80.6 82.8----
2026-09-01 05:24 amWSW 8.0 8.9----30.03- 80.8 82.9----
2026-09-01 05:18 am W 8.9 9.9----30.03-- 83.1----
2026-09-01 05:12 amWSW 8.9 9.9----30.03-- 83.1----
2026-09-01 05:06 amWSW 9.9 11.1----30.03-- 83.1----
2026-09-01 05:00 amWSW 9.9 11.1----30.03-0.03 81.0 83.3----
2026-09-01 04:54 amWSW 9.9 11.1----30.03- 81.0 83.5----
2026-09-01 04:48 amWSW 8.9 9.9----30.03-- 83.5----
2026-09-01 04:42 amWSW 8.9 9.9----30.03-- 83.5----
2026-09-01 04:36 amWSW 8.9 11.1----30.04-- 83.5----
2026-09-01 04:30 amWSW 9.9 11.1----30.04- 81.1 83.7----
2026-09-01 04:24 am W 8.9 9.9----30.04- 81.0 83.7----
2026-09-01 04:18 amWSW 8.0 8.0----30.04-- 83.7----
2026-09-01 04:12 amWSW 8.0 8.9----30.04-- 83.8----
2026-09-01 04:06 amWSW 8.0 8.9----30.04-- 83.8----
2026-09-01 04:00 amWSW 8.0 11.1----30.04-0.04 81.0 83.8----
2026-09-01 03:54 amWSW 8.9 11.1----30.04- 81.0 83.8----
2026-09-01 03:48 amWSW 9.9 12.0----30.04- 81.0 83.8----
2026-09-01 03:42 amWSW 11.1 12.0----30.04- 81.0 83.8----
2026-09-01 03:36 am SW 11.1 12.0----30.04- 81.0 84.0----
2026-09-01 03:30 am SW 11.1 12.0----30.04- 81.0 84.0----
2026-09-01 03:24 am SW 9.9 9.9----30.04- 81.1 83.8----
2026-09-01 03:18 am SW 8.0 8.0----30.04- 81.1 83.8----
2026-09-01 03:12 am SW 7.0 8.0----30.04- 81.1 83.8----
2026-09-01 03:06 am SW 7.0 7.0----30.04- 81.1 83.8----
2026-09-01 03:00 am SW 7.0 7.0------ 81.1 83.7----
2026-09-01 02:54 am SW 5.1 6.0------ 81.3 83.7----
2026-09-01 02:48 am SW 5.1 5.1----30.05- 81.3 83.7----
2026-09-01 02:42 am SW 5.1 6.0----30.05- 81.3 83.7----
2026-09-01 02:36 amWSW 5.1 5.1----30.05- 81.3 83.7----
2026-09-01 02:30 am SW 5.1 6.0----30.05-- 83.7----
2026-09-01 02:24 am SW 5.1 5.1----30.05-- 83.7----
2026-09-01 02:18 am SW 4.1 5.1----30.05-- 83.7----
2026-09-01 02:12 am W 4.1 5.1----30.06-- 83.7----
2026-09-01 02:06 am W 5.1 6.0----30.06-- 83.7----
2026-09-01 02:00 am W 5.1 5.1----30.06+0.00 81.5 83.5----
2026-09-01 01:54 am W 5.1 6.0----30.06- 81.7 83.5----
2026-09-01 01:48 amWSW 5.1 6.0----30.06- 81.7 83.3----
2026-09-01 01:42 am W 5.1 7.0----30.06- 81.7 83.3----
2026-09-01 01:36 amWSW 5.1 6.0----30.07- 81.7 83.1----
2026-09-01 01:30 amSSW 5.1 6.0----30.07- 81.7 83.1----
2026-09-01 01:24 amSSW 5.1 6.0----30.07- 81.5 82.9----
2026-09-01 01:18 amSSW 4.1 5.1----30.07-- 82.9----
2026-09-01 01:12 amSSW 4.1 5.1----30.07-- 82.8----
2026-09-01 01:06 amSSW 4.1 5.1----30.07-- 82.8----
2026-09-01 01:00 amSSW 4.1 5.1----30.08+0.00 81.0 82.9----
2026-09-01 12:54 amSSW 4.1 5.1----30.07- 80.8 82.9----
2026-09-01 12:48 amSSW 4.1 5.1----30.07- 80.8 82.9----
2026-09-01 12:42 amSSW 5.1 5.1----30.07- 80.8 83.1----
2026-09-01 12:36 amSSW 5.1 6.0----30.07- 80.6 83.1----
2026-09-01 12:30 amSSW 5.1 7.0----30.07- 80.6 83.3----
2026-09-01 12:24 am S 6.0 8.0----30.07- 80.8 83.3----
2026-09-01 12:18 am S 7.0 8.9----30.07-- 83.5----
2026-09-01 12:12 am S 7.0 8.0----30.07-- 83.7----
2026-09-01 12:06 am S 7.0 8.9----30.07-- 83.8----
2026-09-01 12:00 am S 7.0 8.9----30.07-0.01 80.2 84.2----
2026-08-31 11:54 pm S 8.0 9.9----30.07- 80.1 84.4----
2026-08-31 11:48 pm S 8.9 9.9----30.07-- 84.6----
2026-08-31 11:42 pm S 8.0 11.1----30.07-- 84.7----
2026-08-31 11:36 pmSSE 9.9 12.0----30.06-- 85.1----
2026-08-31 11:30 pmSSE 9.9 12.0----30.06- 79.7 85.1----
2026-08-31 11:24 pmSSE 11.1 12.0----30.06- 79.3 85.3----
2026-08-31 11:18 pmSSE 11.1 12.0------- 85.3----
2026-08-31 11:12 pmSSE 9.9 11.1------- 85.5----
2026-08-31 11:06 pmSSE 8.9 11.1------- 85.5----
2026-08-31 11:00 pm SE 8.9 9.9----30.07+0.00 78.8 85.5----
2026-08-31 10:54 pm SE 8.9 12.0----30.06- 78.8 85.5----
2026-08-31 10:48 pm SE 9.9 12.0----30.06- 78.8 85.5----
2026-08-31 10:42 pm SE 8.9 9.9----30.07- 79.0 85.5----
2026-08-31 10:36 pm SE 8.0 9.9----30.07- 78.8 85.3----
2026-08-31 10:30 pmESE 8.9 11.1----30.07- 79.0 85.3----
2026-08-31 10:24 pm SE 8.0 9.9----30.07- 78.8 85.3----
2026-08-31 10:18 pmESE 8.0 9.9----30.08-- 85.3----
2026-08-31 10:12 pm SE 8.9 11.1----30.08-- 85.1----
2026-08-31 10:06 pmESE 8.9 11.1----30.08-- 85.1----
2026-08-31 10:00 pmESE 8.9 9.9----30.08+0.00 79.3 84.9----
2026-08-31 09:54 pmESE 8.9 11.1----30.08- 78.8 84.7----
2026-08-31 09:48 pmESE 9.9 11.1----30.08- 78.6 84.6----
2026-08-31 09:42 pmESE 8.9 9.9----30.08- 78.8 84.4----
2026-08-31 09:36 pmESE 8.9 9.9----30.08- 78.8 84.2----
2026-08-31 09:30 pmESE 8.9 9.9----30.08- 79.0 84.0----
2026-08-31 09:24 pmESE 8.0 9.9----30.08- 79.0 83.8----
2026-08-31 09:18 pmESE 8.9 9.9----30.08-- 83.8----
2026-08-31 09:12 pmESE 8.0 8.9----30.08-- 83.8----
2026-08-31 09:06 pmESE 7.0 8.0----30.08-- 83.7----
2026-08-31 09:00 pmESE 6.0 7.0----30.09+0.00 78.6 83.7----
2026-08-31 08:54 pmESE 5.1 7.0----30.08- 78.4 83.7----
2026-08-31 08:48 pmESE 6.0 7.0----30.08-- 83.7----
2026-08-31 08:42 pmESE 6.0 7.0----30.08-- 83.7----
2026-08-31 08:36 pmESE 6.0 7.0----30.08-- 83.7----
2026-08-31 08:30 pmESE 7.0 8.0----30.08- 79.3 83.7----
2026-08-31 08:24 pmESE 6.0 9.9----30.08- 79.3 83.7----
2026-08-31 08:18 pmESE 8.9 9.9----30.07-- 83.7----
2026-08-31 08:12 pmESE 8.9 11.1----30.07-- 83.7----
2026-08-31 08:06 pmESE 8.9 9.9----30.07-- 83.8----
2026-08-31 08:00 pm SE 8.0 9.9----30.07+0.00 79.9 83.8----
2026-08-31 07:54 pm SE 8.9 11.1----30.07- 80.1 84.0----
2026-08-31 07:48 pm SE 8.9 12.0----30.07-- 84.4----
2026-08-31 07:42 pm SE 11.1 11.1----30.07-- 84.4----
2026-08-31 07:36 pm SE 9.9 9.9----30.07-- 84.4----
2026-08-31 06:48 pmESE 12.0 14.0----30.07- 78.4 84.7----
2026-08-31 06:42 pmESE 13.0 15.0----30.07- 79.0 84.7----
2026-08-31 06:36 pmESE 14.0 17.1----30.07- 78.6 84.7----
2026-08-31 06:30 pm E 13.0 17.1----30.08- 78.4 84.7----
2026-08-31 06:24 pm E 15.0 20.0----30.08- 78.4 84.7----
2026-08-31 06:18 pm E 9.9 18.1----30.09- 79.9 84.7----
2026-08-31 06:12 pm E 14.0 17.1----30.08- 80.8 84.7----
2026-08-31 06:06 pm E 12.0 19.0----30.08- 81.7 84.7----
2026-08-31 06:00 pm E 13.0 19.0----30.08+0.00 81.1 84.7----
2026-08-31 05:54 pm W 6.0 6.0----30.08- 83.8 84.7----
2026-08-31 05:48 pmWSW 5.1 5.1----30.08- 83.8 84.6----
2026-08-31 05:42 pm W 2.9 4.1----30.08- 83.8 84.6----
2026-08-31 05:36 pmWSW 2.9 5.1----30.08- 83.7 84.6----
2026-08-31 05:30 pmWSW 4.1 4.1----30.08- 84.4 84.6----
2026-08-31 05:24 pm S 1.9 2.9----30.08- 84.7 84.6----
2026-08-31 05:18 pmSSE 1.9 4.1----30.08-- 84.6----
2026-08-31 05:12 pm SE 1.9 2.9----30.07-- 84.6----
2026-08-31 05:06 pm- 0.0 4.1----30.08-- 84.6----
2026-08-31 05:00 pmWSW 4.1 6.0----30.07-0.02 83.8 84.7----
2026-08-31 04:54 pm W 6.0 7.0----30.07- 84.0 84.9----
2026-08-31 04:48 pm W 6.0 7.0----30.06- 84.2 84.9----
2026-08-31 04:42 pm W 6.0 8.9----30.06- 84.0 84.9----
2026-08-31 04:36 pm W 8.0 8.9----30.06- 84.2 85.1----
2026-08-31 04:30 pm W 7.0 8.0----30.06- 84.0 85.3----
2026-08-31 04:24 pm W 7.0 7.0----30.06- 83.8 85.8----
2026-08-31 04:18 pm W 7.0 8.9----30.06-- 86.0----
2026-08-31 04:12 pm W 8.0 9.9----30.07-- 86.0----
2026-08-31 04:06 pm W 8.9 9.9----30.07-- 85.8----
2026-08-31 04:00 pm W 8.0 8.9----30.07-0.03 83.1 85.6----
2026-08-31 03:54 pmWNW 8.9 9.9----30.07- 82.9 85.5----
2026-08-31 03:48 pm W 8.0 8.0----30.07- 82.8 85.5----
2026-08-31 03:42 pmWNW 8.0 8.9----30.07- 83.1 85.5----
2026-08-31 03:36 pmWNW 8.9 11.1----30.07- 82.8 85.5----
2026-08-31 03:30 pmWNW 9.9 11.1----30.08- 82.6 85.6----
2026-08-31 03:24 pmWNW 8.9 9.9----30.08- 82.8 85.6----
2026-08-31 03:18 pmWNW 8.9 9.9----30.08-- 85.8----
2026-08-31 03:12 pmWNW 8.0 8.9----30.08-- 86.0----
2026-08-31 03:06 pmWNW 8.9 11.1----30.08-- 86.0----
2026-08-31 03:00 pmWNW 9.9 9.9----30.08-0.03 82.4 86.0----
2026-08-31 02:54 pm W 8.9 8.9----30.08- 82.2 86.0----
2026-08-31 02:48 pm W 7.0 8.0----30.09- 82.4 86.0----
2026-08-31 02:42 pm W 7.0 8.0----30.09- 82.2 86.0----
2026-08-31 02:36 pm W 7.0 7.0----30.09- 81.9 86.0----
2026-08-31 02:30 pm W 7.0 8.0----30.09- 82.0 86.0----
2026-08-31 02:24 pm W 7.0 8.0----30.09- 82.0 85.8----
2026-08-31 02:18 pm W 7.0 8.0----30.09-- 85.8----
2026-08-31 02:12 pm W 8.0 9.9----30.09-- 85.8----
2026-08-31 02:06 pm W 7.0 8.9----30.09-- 85.6----
2026-08-31 02:00 pm W 7.0 8.0----30.09-0.02 82.0 85.5----
2026-08-31 01:54 pm W 7.0 8.9----30.09- 81.9 85.5----
2026-08-31 01:48 pm W 7.0 8.0----30.10-- 85.3----
2026-08-31 01:42 pm W 6.0 7.0----30.09-- 85.3----
2026-08-31 01:36 pm SW 5.1 5.1----30.09-- 85.1----
2026-08-31 01:30 pmWSW 5.1 6.0----30.10- 82.4 85.1----
2026-08-31 01:24 pm SW 2.9 2.9----30.10- 83.1 84.9----
2026-08-31 01:18 pmSSW 2.9 2.9----30.10-- 84.9----
2026-08-31 01:12 pmSSW 1.9 4.1----30.10-- 84.9----
2026-08-31 01:06 pm SW 1.9 1.9----30.10-- 84.7----
2026-08-31 01:00 pm SW 1.9 5.1----30.10-0.01 82.4 84.7----
2026-08-31 12:54 pmWSW 2.9 2.9----30.10- 82.8 84.6----
2026-08-31 12:48 pm SE 1.9 1.9----30.10- 82.8 84.6----
2026-08-31 12:42 pm SE 1.0 1.9----30.10- 82.8 84.4----
2026-08-31 12:36 pm SE 1.9 1.9----30.10- 82.6 84.2----
2026-08-31 12:30 pm SE 1.9 1.9----30.10- 82.2 84.2----
2026-08-31 12:24 pmSSE 1.9 2.9----30.11- 82.0 84.0----
2026-08-31 12:18 pm S 1.9 4.1----30.11-- 84.0----
2026-08-31 12:12 pm S 2.9 4.1----30.11-- 83.8----
2026-08-31 12:06 pmSSW 2.9 4.1----30.11-- 83.7----
2026-08-31 12:00 pmSSW 1.9 2.9----30.11+0.00 81.7 83.5----
2026-08-31 11:54 am S 2.9 4.1----30.11- 81.3 83.3----
2026-08-31 11:48 amSSE 2.9 4.1----30.10- 81.1 83.1----
2026-08-31 11:42 amSSE 2.9 4.1----30.10- 81.3 82.9----
2026-08-31 11:36 amSSE 1.9 2.9----30.10- 81.1 82.8----
2026-08-31 11:30 amSSE 2.9 2.9----30.10- 81.0 82.8----
2026-08-31 11:24 amSSE 2.9 4.1----30.10- 80.6 82.6----
2026-08-31 11:18 am SE 4.1 4.1----30.10-- 82.4----
2026-08-31 11:12 amSSE 2.9 2.9----30.10-- 82.2----
2026-08-31 11:06 amSSE 2.9 4.1----30.11-- 82.0----
2026-08-31 11:00 am S 2.9 4.1----30.11+0.01 80.6 82.0----
2026-08-31 10:54 amSSW 2.9 4.1----30.11- 80.4 81.9----